LSZS Airport Information

Runway Information
Runway 03 Length 5905 ft width 130 ft
Elevation 5600 ft Threshold 0 ft Heading 29
Runway 21 Length 5905 ft Width 130 ft
Elevation 5574 ft Threshold 360 ft Heading 209
Airport Frequencies
Type A/G Name GLIDER Frequency 123.67 MHZ
Type ATIS Name ATIS Frequency 136.6 MHZ
Type GND Name GND Frequency 121.6 MHZ
Type INFO Name INFO Frequency 138.05 MHZ
Type TWR Name TWR Frequency 135.325 MHZ
Airport Navaids
Airport Weather Information & NOTAM
ADDS - METARS form results

(0145 UTC 19 January 2018)
 
METAR text: LSZS 190120Z AUTO 20014KT 130V230 9999 NCD M00/M06 Q1005
Conditions at: LSZS (SAMEDAN , CH) observed 0120 UTC 19 January 2018
Temperature: 0.0°C (32°F)
Dewpoint: -6.0°C (21°F) [RH = 64%]
Pressure (altimeter): 29.68 inches Hg (1005.0 mb)
Winds: from the SSW (200 degrees) at 16 MPH (14 knots; 7.3 m/s)
Visibility: 6 or more miles (10+ km)
Ceiling: at least 12,000 feet AGL
Clouds: sky clear below 12,000 feet AGL
Weather: no significant weather observed at this time

METAR text: LSZS 190050Z AUTO 19010KT 9999 BKN060 M00/M06 Q1005
Conditions at: LSZS (SAMEDAN , CH) observed 0050 UTC 19 January 2018
Temperature: 0.0°C (32°F)
Dewpoint: -6.0°C (21°F) [RH = 64%]
Pressure (altimeter): 29.68 inches Hg (1005.0 mb)
Winds: from the S (190 degrees) at 12 MPH (10 knots; 5.2 m/s)
Visibility: 6 or more miles (10+ km)
Ceiling: 6000 feet AGL
Clouds: broken clouds at 6000 feet AGL
Weather: no significant weather observed at this time